sensor_id;sensor_type;location;lat;lon;timestamp;P1;durP1;ratioP1;P2;durP2;ratioP2
55350;SDS011;62194;49.480;10.986;2023-06-24T00:00:00;4.80;;;4.15;;
55350;SDS011;62194;49.480;10.986;2023-06-24T00:00:08;4.90;;;4.05;;
55350;SDS011;62194;49.480;10.986;2023-06-24T00:00:16;4.80;;;4.20;;
55350;SDS011;62194;49.480;10.986;2023-06-24T00:00:24;5.00;;;4.30;;
55350;SDS011;62194;49.480;10.986;2023-06-24T00:00:29;5.00;;;4.33;;
55350;SDS011;62194;49.480;10.986;2023-06-24T00:00:35;4.93;;;4.27;;
55350;SDS011;62194;49.480;10.986;2023-06-24T00:00:43;5.10;;;4.30;;
55350;SDS011;62194;49.480;10.986;2023-06-24T00:00:55;5.26;;;4.31;;
55350;SDS011;62194;49.480;10.986;2023-06-24T00:01:01;5.50;;;4.60;;
55350;SDS011;62194;49.480;10.986;2023-06-24T00:01:09;5.23;;;4.60;;
55350;SDS011;62194;49.480;10.986;2023-06-24T00:01:18;5.14;;;4.60;;
55350;SDS011;62194;49.480;10.986;2023-06-24T00:01:26;5.15;;;4.60;;
55350;SDS011;62194;49.480;10.986;2023-06-24T00:01:31;5.13;;;4.50;;
55350;SDS011;62194;49.480;10.986;2023-06-24T00:01:37;5.17;;;4.47;;
55350;SDS011;62194;49.480;10.986;2023-06-24T00:01:46;5.43;;;4.60;;
55350;SDS011;62194;49.480;10.986;2023-06-24T00:01:51;5.33;;;4.55;;
55350;SDS011;62194;49.480;10.986;2023-06-24T00:01:57;5.73;;;4.47;;
55350;SDS011;62194;49.480;10.986;2023-06-24T00:02:06;5.82;;;4.69;;
55350;SDS011;62194;49.480;10.986;2023-06-24T00:02:12;5.87;;;4.67;;
55350;SDS011;62194;49.480;10.986;2023-06-24T00:02:17;5.63;;;4.55;;
55350;SDS011;62194;49.480;10.986;2023-06-24T00:02:29;5.04;;;4.41;;
55350;SDS011;62194;49.480;10.986;2023-06-24T00:02:34;4.77;;;4.20;;
55350;SDS011;62194;49.480;10.986;2023-06-24T00:02:41;4.80;;;4.30;;
55350;SDS011;62194;49.480;10.986;2023-06-24T00:02:50;4.75;;;4.25;;
55350;SDS011;62194;49.480;10.986;2023-06-24T00:03:01;5.01;;;4.43;;
55350;SDS011;62194;49.480;10.986;2023-06-24T00:03:07;5.00;;;4.50;;
55350;SDS011;62194;49.480;10.986;2023-06-24T00:03:13;5.03;;;4.53;;
55350;SDS011;62194;49.480;10.986;2023-06-24T00:03:22;5.43;;;4.70;;
55350;SDS011;62194;49.480;10.986;2023-06-24T00:03:27;5.32;;;4.72;;
55350;SDS011;62194;49.480;10.986;2023-06-24T00:03:32;5.30;;;4.80;;
55350;SDS011;62194;49.480;10.986;2023-06-24T00:03:42;5.61;;;4.87;;
55350;SDS011;62194;49.480;10.986;2023-06-24T00:03:51;5.26;;;4.70;;
55350;SDS011;62194;49.480;10.986;2023-06-24T00:03:58;5.10;;;4.60;;
55350;SDS011;62194;49.480;10.986;2023-06-24T00:04:03;4.93;;;4.43;;
55350;SDS011;62194;49.480;10.986;2023-06-24T00:04:09;4.80;;;4.30;;
55350;SDS011;62194;49.480;10.986;2023-06-24T00:04:20;4.74;;;4.23;;
55350;SDS011;62194;49.480;10.986;2023-06-24T00:04:25;4.72;;;4.10;;
55350;SDS011;62194;49.480;10.986;2023-06-24T00:04:32;4.80;;;4.13;;
55350;SDS011;62194;49.480;10.986;2023-06-24T00:05:21;4.90;;;4.26;;
55350;SDS011;62194;49.480;10.986;2023-06-24T00:05:29;4.78;;;4.28;;
55350;SDS011;62194;49.480;10.986;2023-06-24T00:05:37;4.92;;;4.34;;
55350;SDS011;62194;49.480;10.986;2023-06-24T00:05:43;5.50;;;4.37;;
55350;SDS011;62194;49.480;10.986;2023-06-24T00:05:56;5.83;;;4.49;;
55350;SDS011;62194;49.480;10.986;2023-06-24T00:06:10;5.92;;;4.64;;
55350;SDS011;62194;49.480;10.986;2023-06-24T00:06:16;5.32;;;4.55;;
55350;SDS011;62194;49.480;10.986;2023-06-24T00:06:36;4.96;;;4.46;;
55350;SDS011;62194;49.480;10.986;2023-06-24T00:06:56;5.11;;;4.55;;
55350;SDS011;62194;49.480;10.986;2023-06-24T00:07:04;5.26;;;4.63;;
55350;SDS011;62194;49.480;10.986;2023-06-24T00:07:15;5.13;;;4.62;;
55350;SDS011;62194;49.480;10.986;2023-06-24T00:07:21;4.80;;;4.40;;
55350;SDS011;62194;49.480;10.986;2023-06-24T00:07:27;4.73;;;4.33;;
55350;SDS011;62194;49.480;10.986;2023-06-24T00:07:32;4.70;;;4.30;;
55350;SDS011;62194;49.480;10.986;2023-06-24T00:07:41;5.00;;;4.50;;
55350;SDS011;62194;49.480;10.986;2023-06-24T00:07:49;5.13;;;4.63;;
55350;SDS011;62194;49.480;10.986;2023-06-24T00:07:54;5.23;;;4.73;;
55350;SDS011;62194;49.480;10.986;2023-06-24T00:08:02;5.03;;;4.53;;
55350;SDS011;62194;49.480;10.986;2023-06-24T00:08:10;5.10;;;4.53;;
55350;SDS011;62194;49.480;10.986;2023-06-24T00:08:16;5.28;;;4.43;;
55350;SDS011;62194;49.480;10.986;2023-06-24T00:08:26;5.40;;;4.47;;
55350;SDS011;62194;49.480;10.986;2023-06-24T00:08:38;6.04;;;4.55;;
55350;SDS011;62194;49.480;10.986;2023-06-24T00:08:45;5.70;;;4.37;;
55350;SDS011;62194;49.480;10.986;2023-06-24T00:08:50;5.68;;;4.40;;
55350;SDS011;62194;49.480;10.986;2023-06-24T00:08:56;5.70;;;4.30;;
55350;SDS011;62194;49.480;10.986;2023-06-24T00:09:05;4.91;;;4.23;;
55350;SDS011;62194;49.480;10.986;2023-06-24T00:09:12;4.77;;;4.27;;
55350;SDS011;62194;49.480;10.986;2023-06-24T00:09:20;4.97;;;4.47;;
55350;SDS011;62194;49.480;10.986;2023-06-24T00:09:31;5.07;;;4.50;;
55350;SDS011;62194;49.480;10.986;2023-06-24T00:09:38;5.22;;;4.69;;
55350;SDS011;62194;49.480;10.986;2023-06-24T00:10:31;5.41;;;4.57;;
55350;SDS011;62194;49.480;10.986;2023-06-24T00:11:29;5.55;;;4.31;;
55350;SDS011;62194;49.480;10.986;2023-06-24T00:11:38;5.40;;;4.45;;
55350;SDS011;62194;49.480;10.986;2023-06-24T00:11:43;5.47;;;4.57;;
55350;SDS011;62194;49.480;10.986;2023-06-24T00:11:49;5.80;;;4.70;;
55350;SDS011;62194;49.480;10.986;2023-06-24T00:12:07;5.75;;;4.93;;
55350;SDS011;62194;49.480;10.986;2023-06-24T00:12:13;5.97;;;5.13;;
55350;SDS011;62194;49.480;10.986;2023-06-24T00:12:23;5.66;;;5.05;;
55350;SDS011;62194;49.480;10.986;2023-06-24T00:12:32;5.65;;;4.88;;
55350;SDS011;62194;49.480;10.986;2023-06-24T00:12:38;5.27;;;4.63;;
55350;SDS011;62194;49.480;10.986;2023-06-24T00:12:44;5.48;;;4.68;;
55350;SDS011;62194;49.480;10.986;2023-06-24T00:12:50;5.65;;;4.72;;
55350;SDS011;62194;49.480;10.986;2023-06-24T00:12:55;5.63;;;4.80;;
55350;SDS011;62194;49.480;10.986;2023-06-24T00:13:04;5.55;;;4.80;;
55350;SDS011;62194;49.480;10.986;2023-06-24T00:13:09;5.23;;;4.53;;
55350;SDS011;62194;49.480;10.986;2023-06-24T00:13:15;5.55;;;4.47;;
55350;SDS011;62194;49.480;10.986;2023-06-24T00:13:21;5.43;;;4.30;;
55350;SDS011;62194;49.480;10.986;2023-06-24T00:13:32;5.53;;;4.20;;
55350;SDS011;62194;49.480;10.986;2023-06-24T00:13:58;5.41;;;4.31;;
55350;SDS011;62194;49.480;10.986;2023-06-24T00:14:16;5.38;;;4.57;;
55350;SDS011;62194;49.480;10.986;2023-06-24T00:14:37;5.97;;;4.75;;
55350;SDS011;62194;49.480;10.986;2023-06-24T00:15:06;5.71;;;4.78;;
55350;SDS011;62194;49.480;10.986;2023-06-24T00:15:16;5.30;;;4.70;;
55350;SDS011;62194;49.480;10.986;2023-06-24T00:15:29;5.93;;;4.70;;
55350;SDS011;62194;49.480;10.986;2023-06-24T00:15:35;6.10;;;4.70;;
55350;SDS011;62194;49.480;10.986;2023-06-24T00:15:49;5.96;;;4.70;;
55350;SDS011;62194;49.480;10.986;2023-06-24T00:15:55;5.50;;;4.67;;
55350;SDS011;62194;49.480;10.986;2023-06-24T00:16:00;5.07;;;4.50;;
55350;SDS011;62194;49.480;10.986;2023-06-24T00:16:06;5.03;;;4.50;;
55350;SDS011;62194;49.480;10.986;2023-06-24T00:16:11;5.03;;;4.53;;
55350;SDS011;62194;49.480;10.986;2023-06-24T00:16:17;4.82;;;4.32;;
55350;SDS011;62194;49.480;10.986;2023-06-24T00:16:31;4.90;;;4.35;;
55350;SDS011;62194;49.480;10.986;2023-06-24T00:16:37;5.00;;;4.50;;
55350;SDS011;62194;49.480;10.986;2023-06-24T00:16:42;5.10;;;4.60;;
55350;SDS011;62194;49.480;10.986;2023-06-24T00:16:47;5.60;;;4.63;;
55350;SDS011;62194;49.480;10.986;2023-06-24T00:16:56;5.55;;;4.67;;
55350;SDS011;62194;49.480;10.986;2023-06-24T00:17:01;5.90;;;4.70;;
55350;SDS011;62194;49.480;10.986;2023-06-24T00:17:07;5.95;;;4.68;;
55350;SDS011;62194;49.480;10.986;2023-06-24T00:17:13;6.38;;;4.60;;
55350;SDS011;62194;49.480;10.986;2023-06-24T00:17:21;5.87;;;4.56;;
55350;SDS011;62194;49.480;10.986;2023-06-24T00:17:27;5.67;;;4.43;;
55350;SDS011;62194;49.480;10.986;2023-06-24T00:17:33;5.60;;;4.60;;
55350;SDS011;62194;49.480;10.986;2023-06-24T00:17:44;5.07;;;4.48;;
55350;SDS011;62194;49.480;10.986;2023-06-24T00:17:49;5.32;;;4.50;;
55350;SDS011;62194;49.480;10.986;2023-06-24T00:17:55;5.50;;;4.40;;
55350;SDS011;62194;49.480;10.986;2023-06-24T00:18:10;5.53;;;4.44;;
55350;SDS011;62194;49.480;10.986;2023-06-24T00:18:18;5.53;;;4.50;;
55350;SDS011;62194;49.480;10.986;2023-06-24T00:18:29;5.18;;;4.38;;
55350;SDS011;62194;49.480;10.986;2023-06-24T00:18:36;4.90;;;4.25;;
55350;SDS011;62194;49.480;10.986;2023-06-24T00:18:54;5.11;;;4.31;;
55350;SDS011;62194;49.480;10.986;2023-06-24T00:19:05;5.14;;;4.43;;
55350;SDS011;62194;49.480;10.986;2023-06-24T00:19:11;5.20;;;4.53;;
55350;SDS011;62194;49.480;10.986;2023-06-24T00:19:19;5.10;;;4.53;;
55350;SDS011;62194;49.480;10.986;2023-06-24T00:19:26;5.04;;;4.53;;
55350;SDS011;62194;49.480;10.986;2023-06-24T00:19:32;4.85;;;4.32;;
55350;SDS011;62194;49.480;10.986;2023-06-24T00:19:37;4.93;;;4.43;;
55350;SDS011;62194;49.480;10.986;2023-06-24T00:19:45;4.97;;;4.47;;
55350;SDS011;62194;49.480;10.986;2023-06-24T00:19:51;4.90;;;4.40;;
55350;SDS011;62194;49.480;10.986;2023-06-24T00:19:59;4.80;;;4.30;;
55350;SDS011;62194;49.480;10.986;2023-06-24T00:20:05;4.87;;;4.30;;
55350;SDS011;62194;49.480;10.986;2023-06-24T00:20:15;4.64;;;4.13;;
55350;SDS011;62194;49.480;10.986;2023-06-24T00:20:23;4.98;;;4.22;;
55350;SDS011;62194;49.480;10.986;2023-06-24T00:20:28;5.57;;;4.40;;
55350;SDS011;62194;49.480;10.986;2023-06-24T00:20:33;5.47;;;4.33;;
55350;SDS011;62194;49.480;10.986;2023-06-24T00:20:39;5.43;;;4.37;;
55350;SDS011;62194;49.480;10.986;2023-06-24T00:20:48;5.50;;;4.36;;
55350;SDS011;62194;49.480;10.986;2023-06-24T00:20:54;5.47;;;4.30;;
55350;SDS011;62194;49.480;10.986;2023-06-24T00:21:02;4.84;;;4.30;;
55350;SDS011;62194;49.480;10.986;2023-06-24T00:21:08;4.88;;;4.38;;
55350;SDS011;62194;49.480;10.986;2023-06-24T00:21:13;4.93;;;4.43;;
55350;SDS011;62194;49.480;10.986;2023-06-24T00:21:22;4.80;;;4.40;;
55350;SDS011;62194;49.480;10.986;2023-06-24T00:21:27;5.18;;;4.40;;
55350;SDS011;62194;49.480;10.986;2023-06-24T00:21:35;5.50;;;4.48;;
55350;SDS011;62194;49.480;10.986;2023-06-24T00:21:42;5.48;;;4.43;;
55350;SDS011;62194;49.480;10.986;2023-06-24T00:21:50;5.87;;;4.42;;
55350;SDS011;62194;49.480;10.986;2023-06-24T00:21:57;5.60;;;4.40;;
55350;SDS011;62194;49.480;10.986;2023-06-24T00:22:03;5.30;;;4.28;;
55350;SDS011;62194;49.480;10.986;2023-06-24T00:22:20;5.36;;;4.36;;
55350;SDS011;62194;49.480;10.986;2023-06-24T00:22:27;5.27;;;4.50;;
55350;SDS011;62194;49.480;10.986;2023-06-24T00:22:40;5.38;;;4.50;;
55350;SDS011;62194;49.480;10.986;2023-06-24T00:22:48;5.53;;;4.35;;
55350;SDS011;62194;49.480;10.986;2023-06-24T00:22:54;5.20;;;4.25;;
55350;SDS011;62194;49.480;10.986;2023-06-24T00:23:02;5.52;;;4.37;;
55350;SDS011;62194;49.480;10.986;2023-06-24T00:23:16;5.38;;;4.35;;
55350;SDS011;62194;49.480;10.986;2023-06-24T00:23:29;5.49;;;4.49;;
55350;SDS011;62194;49.480;10.986;2023-06-24T00:23:42;5.01;;;4.39;;
55350;SDS011;62194;49.480;10.986;2023-06-24T00:23:50;4.92;;;4.37;;
55350;SDS011;62194;49.480;10.986;2023-06-24T00:23:58;4.80;;;4.30;;
55350;SDS011;62194;49.480;10.986;2023-06-24T00:24:07;5.33;;;4.67;;
55350;SDS011;62194;49.480;10.986;2023-06-24T00:24:14;4.93;;;4.43;;
55350;SDS011;62194;49.480;10.986;2023-06-24T00:24:22;5.07;;;4.57;;
55350;SDS011;62194;49.480;10.986;2023-06-24T00:24:31;5.19;;;4.69;;
55350;SDS011;62194;49.480;10.986;2023-06-24T00:24:36;5.07;;;4.57;;
55350;SDS011;62194;49.480;10.986;2023-06-24T00:24:48;4.93;;;4.43;;
55350;SDS011;62194;49.480;10.986;2023-06-24T00:24:55;5.11;;;4.61;;
55350;SDS011;62194;49.480;10.986;2023-06-24T00:25:01;5.13;;;4.63;;
55350;SDS011;62194;49.480;10.986;2023-06-24T00:25:07;5.35;;;4.80;;
55350;SDS011;62194;49.480;10.986;2023-06-24T00:25:13;5.60;;;5.00;;
55350;SDS011;62194;49.480;10.986;2023-06-24T00:25:18;5.77;;;5.10;;
55350;SDS011;62194;49.480;10.986;2023-06-24T00:25:24;6.00;;;5.07;;
55350;SDS011;62194;49.480;10.986;2023-06-24T00:25:29;5.93;;;4.90;;
55350;SDS011;62194;49.480;10.986;2023-06-24T00:25:35;5.65;;;4.72;;
55350;SDS011;62194;49.480;10.986;2023-06-24T00:25:42;5.53;;;4.40;;
55350;SDS011;62194;49.480;10.986;2023-06-24T00:25:54;5.50;;;4.30;;
55350;SDS011;62194;49.480;10.986;2023-06-24T00:26:00;5.15;;;4.32;;
55350;SDS011;62194;49.480;10.986;2023-06-24T00:26:11;5.38;;;4.41;;
55350;SDS011;62194;49.480;10.986;2023-06-24T00:26:19;4.97;;;4.43;;
55350;SDS011;62194;49.480;10.986;2023-06-24T00:26:27;4.95;;;4.35;;
55350;SDS011;62194;49.480;10.986;2023-06-24T00:26:33;4.70;;;4.20;;
55350;SDS011;62194;49.480;10.986;2023-06-24T00:26:38;4.65;;;4.10;;
55350;SDS011;62194;49.480;10.986;2023-06-24T00:26:46;4.67;;;4.10;;
55350;SDS011;62194;49.480;10.986;2023-06-24T00:27:02;4.69;;;4.15;;
55350;SDS011;62194;49.480;10.986;2023-06-24T00:27:07;5.13;;;4.37;;
55350;SDS011;62194;49.480;10.986;2023-06-24T00:27:13;5.10;;;4.40;;
55350;SDS011;62194;49.480;10.986;2023-06-24T00:27:18;5.33;;;4.50;;
55350;SDS011;62194;49.480;10.986;2023-06-24T00:27:23;5.25;;;4.43;;
55350;SDS011;62194;49.480;10.986;2023-06-24T00:27:29;4.93;;;4.20;;
55350;SDS011;62194;49.480;10.986;2023-06-24T00:27:34;4.75;;;4.07;;
55350;SDS011;62194;49.480;10.986;2023-06-24T00:27:40;5.13;;;4.27;;
55350;SDS011;62194;49.480;10.986;2023-06-24T00:27:47;5.13;;;4.28;;
55350;SDS011;62194;49.480;10.986;2023-06-24T00:27:55;5.07;;;4.30;;
55350;SDS011;62194;49.480;10.986;2023-06-24T00:28:03;5.40;;;4.50;;
55350;SDS011;62194;49.480;10.986;2023-06-24T00:28:08;5.20;;;4.50;;
55350;SDS011;62194;49.480;10.986;2023-06-24T00:28:14;5.00;;;4.40;;
55350;SDS011;62194;49.480;10.986;2023-06-24T00:28:19;5.15;;;4.43;;
55350;SDS011;62194;49.480;10.986;2023-06-24T00:28:39;5.48;;;4.72;;
55350;SDS011;62194;49.480;10.986;2023-06-24T00:28:47;5.46;;;4.80;;
55350;SDS011;62194;49.480;10.986;2023-06-24T00:28:53;5.63;;;4.70;;
55350;SDS011;62194;49.480;10.986;2023-06-24T00:28:58;5.40;;;4.47;;
55350;SDS011;62194;49.480;10.986;2023-06-24T00:29:06;5.55;;;4.40;;
55350;SDS011;62194;49.480;10.986;2023-06-24T00:29:19;5.90;;;4.50;;
55350;SDS011;62194;49.480;10.986;2023-06-24T00:29:25;6.06;;;4.49;;
55350;SDS011;62194;49.480;10.986;2023-06-24T00:29:30;5.82;;;4.35;;
55350;SDS011;62194;49.480;10.986;2023-06-24T00:29:35;5.93;;;4.27;;
55350;SDS011;62194;49.480;10.986;2023-06-24T00:29:41;5.80;;;4.30;;
55350;SDS011;62194;49.480;10.986;2023-06-24T00:29:46;5.68;;;4.40;;
55350;SDS011;62194;49.480;10.986;2023-06-24T00:29:52;5.27;;;4.30;;
55350;SDS011;62194;49.480;10.986;2023-06-24T00:29:57;5.47;;;4.53;;
55350;SDS011;62194;49.480;10.986;2023-06-24T00:30:02;5.97;;;4.90;;
55350;SDS011;62194;49.480;10.986;2023-06-24T00:30:08;6.00;;;4.88;;
55350;SDS011;62194;49.480;10.986;2023-06-24T00:30:14;5.70;;;4.72;;
55350;SDS011;62194;49.480;10.986;2023-06-24T00:30:20;5.67;;;4.73;;
55350;SDS011;62194;49.480;10.986;2023-06-24T00:30:25;5.63;;;4.63;;
55350;SDS011;62194;49.480;10.986;2023-06-24T00:30:34;5.43;;;4.43;;
55350;SDS011;62194;49.480;10.986;2023-06-24T00:30:39;5.20;;;4.40;;
55350;SDS011;62194;49.480;10.986;2023-06-24T00:30:45;5.17;;;4.37;;
55350;SDS011;62194;49.480;10.986;2023-06-24T00:30:52;5.12;;;4.44;;
55350;SDS011;62194;49.480;10.986;2023-06-24T00:31:00;6.14;;;4.67;;
55350;SDS011;62194;49.480;10.986;2023-06-24T00:31:07;6.83;;;5.07;;
55350;SDS011;62194;49.480;10.986;2023-06-24T00:31:12;7.50;;;5.20;;
55350;SDS011;62194;49.480;10.986;2023-06-24T00:31:23;7.60;;;5.18;;
55350;SDS011;62194;49.480;10.986;2023-06-24T00:31:31;6.40;;;5.00;;
55350;SDS011;62194;49.480;10.986;2023-06-24T00:31:37;5.97;;;4.87;;
55350;SDS011;62194;49.480;10.986;2023-06-24T00:31:42;5.78;;;4.85;;
55350;SDS011;62194;49.480;10.986;2023-06-24T00:31:50;5.77;;;4.87;;
55350;SDS011;62194;49.480;10.986;2023-06-24T00:31:58;5.51;;;4.72;;
55350;SDS011;62194;49.480;10.986;2023-06-24T00:32:04;5.80;;;4.68;;
55350;SDS011;62194;49.480;10.986;2023-06-24T00:32:13;5.50;;;4.60;;
55350;SDS011;62194;49.480;10.986;2023-06-24T00:32:18;5.23;;;4.60;;
55350;SDS011;62194;49.480;10.986;2023-06-24T00:32:23;5.20;;;4.70;;
55350;SDS011;62194;49.480;10.986;2023-06-24T00:32:32;5.10;;;4.60;;
55350;SDS011;62194;49.480;10.986;2023-06-24T00:32:37;4.97;;;4.47;;
55350;SDS011;62194;49.480;10.986;2023-06-24T00:32:42;4.88;;;4.38;;
55350;SDS011;62194;49.480;10.986;2023-06-24T00:32:48;4.97;;;4.40;;
55350;SDS011;62194;49.480;10.986;2023-06-24T00:32:53;5.10;;;4.40;;
55350;SDS011;62194;49.480;10.986;2023-06-24T00:32:59;5.15;;;4.45;;
55350;SDS011;62194;49.480;10.986;2023-06-24T00:33:04;5.23;;;4.67;;
55350;SDS011;62194;49.480;10.986;2023-06-24T00:33:10;5.38;;;4.70;;
55350;SDS011;62194;49.480;10.986;2023-06-24T00:33:21;6.47;;;4.70;;
55350;SDS011;62194;49.480;10.986;2023-06-24T00:33:28;6.73;;;4.67;;
55350;SDS011;62194;49.480;10.986;2023-06-24T00:33:34;6.63;;;4.47;;
55350;SDS011;62194;49.480;10.986;2023-06-24T00:33:42;6.54;;;4.44;;
55350;SDS011;62194;49.480;10.986;2023-06-24T00:33:51;5.63;;;4.40;;
55350;SDS011;62194;49.480;10.986;2023-06-24T00:33:57;5.30;;;4.38;;
55350;SDS011;62194;49.480;10.986;2023-06-24T00:34:03;5.10;;;4.50;;
55350;SDS011;62194;49.480;10.986;2023-06-24T00:34:09;5.22;;;4.63;;
55350;SDS011;62194;49.480;10.986;2023-06-24T00:34:14;5.05;;;4.55;;
55350;SDS011;62194;49.480;10.986;2023-06-24T00:34:20;5.13;;;4.63;;
55350;SDS011;62194;49.480;10.986;2023-06-24T00:34:26;5.10;;;4.60;;
55350;SDS011;62194;49.480;10.986;2023-06-24T00:34:34;5.07;;;4.57;;
55350;SDS011;62194;49.480;10.986;2023-06-24T00:34:39;4.97;;;4.47;;
55350;SDS011;62194;49.480;10.986;2023-06-24T00:34:48;5.03;;;4.42;;
55350;SDS011;62194;49.480;10.986;2023-06-24T00:34:55;5.84;;;4.76;;
55350;SDS011;62194;49.480;10.986;2023-06-24T00:35:05;6.27;;;5.00;;
55350;SDS011;62194;49.480;10.986;2023-06-24T00:35:11;6.28;;;5.15;;
55350;SDS011;62194;49.480;10.986;2023-06-24T00:35:17;6.07;;;5.20;;
55350;SDS011;62194;49.480;10.986;2023-06-24T00:35:23;5.57;;;4.97;;
55350;SDS011;62194;49.480;10.986;2023-06-24T00:35:28;5.47;;;4.95;;
55350;SDS011;62194;49.480;10.986;2023-06-24T00:35:34;5.40;;;4.90;;
55350;SDS011;62194;49.480;10.986;2023-06-24T00:35:39;5.30;;;4.80;;
55350;SDS011;62194;49.480;10.986;2023-06-24T00:35:46;5.27;;;4.77;;
55350;SDS011;62194;49.480;10.986;2023-06-24T00:35:52;5.50;;;4.80;;
55350;SDS011;62194;49.480;10.986;2023-06-24T00:36:02;6.01;;;4.71;;
55350;SDS011;62194;49.480;10.986;2023-06-24T00:36:37;6.39;;;4.94;;
55350;SDS011;62194;49.480;10.986;2023-06-24T00:36:51;5.56;;;4.74;;
55350;SDS011;62194;49.480;10.986;2023-06-24T00:36:57;5.43;;;4.73;;
55350;SDS011;62194;49.480;10.986;2023-06-24T00:37:10;5.20;;;4.70;;
55350;SDS011;62194;49.480;10.986;2023-06-24T00:37:17;5.00;;;4.50;;
55350;SDS011;62194;49.480;10.986;2023-06-24T00:37:26;4.87;;;4.37;;
55350;SDS011;62194;49.480;10.986;2023-06-24T00:37:32;4.60;;;4.20;;
55350;SDS011;62194;49.480;10.986;2023-06-24T00:37:38;4.70;;;4.30;;
55350;SDS011;62194;49.480;10.986;2023-06-24T00:37:43;4.70;;;4.30;;
55350;SDS011;62194;49.480;10.986;2023-06-24T00:37:50;5.24;;;4.34;;
55350;SDS011;62194;49.480;10.986;2023-06-24T00:37:58;5.30;;;4.30;;
55350;SDS011;62194;49.480;10.986;2023-06-24T00:38:04;5.30;;;4.47;;
55350;SDS011;62194;49.480;10.986;2023-06-24T00:38:09;5.35;;;4.50;;
55350;SDS011;62194;49.480;10.986;2023-06-24T00:38:14;5.33;;;4.50;;
55350;SDS011;62194;49.480;10.986;2023-06-24T00:38:20;5.00;;;4.50;;
55350;SDS011;62194;49.480;10.986;2023-06-24T00:38:25;5.07;;;4.57;;
55350;SDS011;62194;49.480;10.986;2023-06-24T00:38:31;5.10;;;4.60;;
55350;SDS011;62194;49.480;10.986;2023-06-24T00:38:37;5.04;;;4.54;;
55350;SDS011;62194;49.480;10.986;2023-06-24T00:38:45;5.17;;;4.67;;
55350;SDS011;62194;49.480;10.986;2023-06-24T00:38:50;5.30;;;4.80;;
55350;SDS011;62194;49.480;10.986;2023-06-24T00:38:56;5.35;;;4.85;;
55350;SDS011;62194;49.480;10.986;2023-06-24T00:39:02;5.33;;;4.83;;
55350;SDS011;62194;49.480;10.986;2023-06-24T00:39:10;5.20;;;4.70;;
55350;SDS011;62194;49.480;10.986;2023-06-24T00:39:22;5.20;;;4.64;;
55350;SDS011;62194;49.480;10.986;2023-06-24T00:39:27;5.54;;;4.64;;
55350;SDS011;62194;49.480;10.986;2023-06-24T00:39:33;5.90;;;4.65;;
55350;SDS011;62194;49.480;10.986;2023-06-24T00:39:39;5.90;;;4.70;;
55350;SDS011;62194;49.480;10.986;2023-06-24T00:39:44;6.03;;;4.72;;
55350;SDS011;62194;49.480;10.986;2023-06-24T00:39:49;5.43;;;4.47;;
55350;SDS011;62194;49.480;10.986;2023-06-24T00:39:55;5.47;;;4.43;;
55350;SDS011;62194;49.480;10.986;2023-06-24T00:40:00;5.37;;;4.60;;
55350;SDS011;62194;49.480;10.986;2023-06-24T00:40:06;5.65;;;4.70;;
55350;SDS011;62194;49.480;10.986;2023-06-24T00:40:16;5.89;;;4.86;;
55350;SDS011;62194;49.480;10.986;2023-06-24T00:40:25;6.32;;;5.03;;
55350;SDS011;62194;49.480;10.986;2023-06-24T00:40:30;6.70;;;5.00;;
55350;SDS011;62194;49.480;10.986;2023-06-24T00:40:41;6.49;;;4.79;;
55350;SDS011;62194;49.480;10.986;2023-06-24T00:40:47;6.17;;;4.72;;
55350;SDS011;62194;49.480;10.986;2023-06-24T00:40:52;5.60;;;4.50;;
55350;SDS011;62194;49.480;10.986;2023-06-24T00:40:58;5.68;;;4.30;;
55350;SDS011;62194;49.480;10.986;2023-06-24T00:41:04;5.43;;;4.22;;
55350;SDS011;62194;49.480;10.986;2023-06-24T00:41:12;6.03;;;4.27;;
55350;SDS011;62194;49.480;10.986;2023-06-24T00:41:18;5.82;;;4.28;;
55350;SDS011;62194;49.480;10.986;2023-06-24T00:41:24;6.00;;;4.45;;
55350;SDS011;62194;49.480;10.986;2023-06-24T00:41:30;5.30;;;4.60;;
55350;SDS011;62194;49.480;10.986;2023-06-24T00:41:42;5.40;;;4.70;;
55350;SDS011;62194;49.480;10.986;2023-06-24T00:41:47;5.40;;;4.77;;
55350;SDS011;62194;49.480;10.986;2023-06-24T00:41:53;5.40;;;4.80;;
55350;SDS011;62194;49.480;10.986;2023-06-24T00:42:01;5.33;;;4.80;;
55350;SDS011;62194;49.480;10.986;2023-06-24T00:42:06;5.52;;;4.77;;
55350;SDS011;62194;49.480;10.986;2023-06-24T00:42:12;5.60;;;4.75;;
55350;SDS011;62194;49.480;10.986;2023-06-24T00:42:20;6.00;;;4.90;;
55350;SDS011;62194;49.480;10.986;2023-06-24T00:42:25;6.67;;;4.87;;
55350;SDS011;62194;49.480;10.986;2023-06-24T00:42:31;6.62;;;4.80;;
55350;SDS011;62194;49.480;10.986;2023-06-24T00:42:37;6.30;;;4.80;;
55350;SDS011;62194;49.480;10.986;2023-06-24T00:42:44;6.00;;;4.70;;
55350;SDS011;62194;49.480;10.986;2023-06-24T00:42:50;5.92;;;4.68;;
55350;SDS011;62194;49.480;10.986;2023-06-24T00:42:56;5.20;;;4.57;;
55350;SDS011;62194;49.480;10.986;2023-06-24T00:43:01;5.03;;;4.50;;
55350;SDS011;62194;49.480;10.986;2023-06-24T00:43:08;5.86;;;4.60;;
55350;SDS011;62194;49.480;10.986;2023-06-24T00:43:16;5.43;;;4.40;;
55350;SDS011;62194;49.480;10.986;2023-06-24T00:43:21;5.33;;;4.40;;
55350;SDS011;62194;49.480;10.986;2023-06-24T00:43:29;5.80;;;4.50;;
55350;SDS011;62194;49.480;10.986;2023-06-24T00:43:35;4.97;;;4.43;;
55350;SDS011;62194;49.480;10.986;2023-06-24T00:43:44;5.04;;;4.47;;
55350;SDS011;62194;49.480;10.986;2023-06-24T00:43:50;5.20;;;4.60;;
55350;SDS011;62194;49.480;10.986;2023-06-24T00:43:56;5.07;;;4.50;;
55350;SDS011;62194;49.480;10.986;2023-06-24T00:44:02;5.22;;;4.60;;
55350;SDS011;62194;49.480;10.986;2023-06-24T00:44:16;6.21;;;4.77;;
55350;SDS011;62194;49.480;10.986;2023-06-24T00:44:22;6.66;;;4.60;;
55350;SDS011;62194;49.480;10.986;2023-06-24T00:44:30;6.29;;;4.61;;
55350;SDS011;62194;49.480;10.986;2023-06-24T00:44:36;5.53;;;4.67;;
55350;SDS011;62194;49.480;10.986;2023-06-24T00:44:42;5.30;;;4.80;;
55350;SDS011;62194;49.480;10.986;2023-06-24T00:44:48;5.37;;;4.87;;
55350;SDS011;62194;49.480;10.986;2023-06-24T00:44:54;5.82;;;4.82;;
55350;SDS011;62194;49.480;10.986;2023-06-24T00:44:59;5.68;;;4.70;;
55350;SDS011;62194;49.480;10.986;2023-06-24T00:45:09;5.73;;;4.43;;
55350;SDS011;62194;49.480;10.986;2023-06-24T00:45:15;5.70;;;4.43;;
55350;SDS011;62194;49.480;10.986;2023-06-24T00:45:22;5.38;;;4.45;;
55350;SDS011;62194;49.480;10.986;2023-06-24T00:45:28;5.47;;;4.60;;
55350;SDS011;62194;49.480;10.986;2023-06-24T00:45:38;5.38;;;4.75;;
55350;SDS011;62194;49.480;10.986;2023-06-24T00:45:44;5.34;;;4.79;;
55350;SDS011;62194;49.480;10.986;2023-06-24T00:45:50;5.40;;;4.87;;
55350;SDS011;62194;49.480;10.986;2023-06-24T00:45:58;5.40;;;4.90;;
55350;SDS011;62194;49.480;10.986;2023-06-24T00:46:03;5.30;;;4.80;;
55350;SDS011;62194;49.480;10.986;2023-06-24T00:46:08;5.63;;;4.73;;
55350;SDS011;62194;49.480;10.986;2023-06-24T00:46:14;5.80;;;4.80;;
55350;SDS011;62194;49.480;10.986;2023-06-24T00:46:20;5.97;;;4.83;;
55350;SDS011;62194;49.480;10.986;2023-06-24T00:46:26;6.07;;;4.83;;
55350;SDS011;62194;49.480;10.986;2023-06-24T00:46:33;5.90;;;4.80;;
55350;SDS011;62194;49.480;10.986;2023-06-24T00:46:39;5.56;;;4.90;;
55350;SDS011;62194;49.480;10.986;2023-06-24T00:46:45;5.27;;;4.73;;
55350;SDS011;62194;49.480;10.986;2023-06-24T00:46:53;5.22;;;4.72;;
55350;SDS011;62194;49.480;10.986;2023-06-24T00:46:59;5.36;;;4.83;;
55350;SDS011;62194;49.480;10.986;2023-06-24T00:47:07;5.77;;;4.97;;
55350;SDS011;62194;49.480;10.986;2023-06-24T00:47:13;5.48;;;4.74;;